KBWW

Bowman Regional Airport

Bowman, North Dakota, USA
METAR KBWW 191235Z AUTO 05011KT 10SM CLR 07/06 A2994 RMK AO2
Observed Flight Rules
Sep-19 @ 12:35 UTC (21 minutes ago) Visual Flight Rules
Wind Visibility Clouds
50° at 11 knots 10 miles
  • Clear skies
Temperatures Readings
Current 7°C / 45°F
Dewpoint 6°C / 43°F
Humidity 93%
Altimeter 29.94" Hg
Pressure 1014 hPa
Elevation 910
METAR KBWW 191235Z AUTO 05011KT 10SM CLR 07/06 A2994 RMK AO2
Observed Flight Rules
Sep-19 @ 12:35 UTC
(21 minutes ago)
VFR
Wind Visibility
50° at 11 knots 10 miles
Clouds
  • Clear skies
Temperature Dewpoint
7°C / 45°F 6°C / 43°F
Humidity Altimeter Pressure
93% 29.94" Hg 1014 hPa